createdAt,value
2019-02-15T00:01:45.855Z,13.23
2019-02-15T00:04:15.737Z,13.20
2019-02-15T00:06:47.949Z,11.20
2019-02-15T00:09:17.836Z,12.10
2019-02-15T00:11:47.647Z,12.20
2019-02-15T00:14:17.661Z,12.50
2019-02-15T00:16:47.716Z,11.13
2019-02-15T00:19:36.659Z,11.70
2019-02-15T00:22:06.525Z,9.90
2019-02-15T00:24:36.380Z,10.70
2019-02-15T00:27:06.459Z,13.10
2019-02-15T00:29:36.310Z,12.23
2019-02-15T00:32:06.500Z,11.80
2019-02-15T00:34:36.430Z,12.13
2019-02-15T00:37:06.352Z,12.40
2019-02-15T00:39:36.310Z,11.97
2019-02-15T00:42:06.470Z,12.10
2019-02-15T00:44:36.350Z,11.93
2019-02-15T00:47:21.569Z,11.80
2019-02-15T00:49:58.304Z,15.60
2019-02-15T00:52:47.386Z,12.07
2019-02-15T00:55:39.307Z,12.77
2019-02-15T00:58:16.395Z,13.90
2019-02-15T01:00:57.910Z,13.20
2019-02-15T01:03:52.702Z,12.20
2019-02-15T01:06:44.431Z,12.00
2019-02-15T01:09:22.679Z,15.43
2019-02-15T01:11:58.983Z,13.40
2019-02-15T01:14:29.208Z,14.97
2019-02-15T01:16:59.029Z,16.07
2019-02-15T01:19:29.125Z,14.70
2019-02-15T01:21:59.070Z,13.93
2019-02-15T01:24:28.949Z,15.50
2019-02-15T01:27:02.087Z,15.03
2019-02-15T01:29:58.705Z,13.13
2019-02-15T01:32:50.693Z,14.87
2019-02-15T01:35:27.684Z,15.30
2019-02-15T01:38:10.016Z,14.43
2019-02-15T01:41:04.982Z,15.80
2019-02-15T01:43:40.567Z,13.77
2019-02-15T01:46:17.429Z,15.80
2019-02-15T01:48:47.954Z,14.23
2019-02-15T01:51:18.029Z,14.63
2019-02-15T01:53:48.465Z,17.80
2019-02-15T01:56:18.437Z,17.60
2019-02-15T01:58:48.355Z,14.73
2019-02-15T02:01:22.311Z,15.00
2019-02-15T02:03:52.530Z,16.20
2019-02-15T02:06:22.698Z,17.40
2019-02-15T02:08:53.077Z,13.67
2019-02-15T02:11:22.938Z,13.87
2019-02-15T02:13:53.425Z,14.40
2019-02-15T02:16:23.582Z,13.60
2019-02-15T02:18:53.896Z,13.93
2019-02-15T02:21:23.712Z,15.37
2019-02-15T02:23:53.719Z,15.73
2019-02-15T02:26:23.544Z,13.60
2019-02-15T02:28:53.652Z,16.70
2019-02-15T02:31:24.000Z,14.30
2019-02-15T02:33:54.016Z,14.60
2019-02-15T02:36:47.679Z,15.40
2019-02-15T02:39:17.836Z,15.30
2019-02-15T02:41:48.018Z,15.47
2019-02-15T02:44:18.189Z,14.00
2019-02-15T02:46:48.194Z,15.57
2019-02-15T02:49:18.824Z,14.10
2019-02-15T02:51:48.600Z,15.07
2019-02-15T02:54:18.488Z,13.83
2019-02-15T02:56:48.549Z,13.53
2019-02-15T02:59:18.591Z,14.37
2019-02-15T03:01:49.021Z,13.53
2019-02-15T03:04:19.075Z,13.20
2019-02-15T03:06:49.050Z,14.90
2019-02-15T03:09:18.888Z,13.63
2019-02-15T03:11:49.056Z,13.93
2019-02-15T03:14:19.313Z,14.90
2019-02-15T03:16:49.256Z,15.47
2019-02-15T03:19:19.281Z,14.60
2019-02-15T03:21:50.363Z,15.23
2019-02-15T07:49:39.024Z,13.63
2019-02-15T07:55:08.681Z,12.00
2019-02-15T07:57:51.668Z,16.80
2019-02-15T08:00:22.202Z,14.57
2019-02-15T08:02:52.308Z,12.93
2019-02-15T08:05:23.498Z,12.50
2019-02-15T08:07:53.880Z,13.20
2019-02-15T08:10:23.990Z,19.20
2019-02-15T08:12:54.276Z,15.87
2019-02-15T08:15:24.579Z,17.07
2019-02-15T08:17:55.918Z,18.23
2019-02-15T08:20:26.356Z,20.07
2019-02-15T08:22:59.914Z,13.33
2019-02-15T08:25:30.022Z,15.87
2019-02-15T08:28:00.306Z,20.03
2019-02-15T08:30:30.407Z,20.37
2019-02-15T08:33:00.633Z,15.60
2019-02-15T08:35:30.694Z,22.47
2019-02-15T08:37:59.849Z,15.20
2019-02-15T08:40:29.365Z,15.77
2019-02-15T08:42:58.585Z,15.97
2019-02-15T08:45:28.814Z,18.47
2019-02-15T08:47:58.313Z,13.43
2019-02-15T08:50:28.015Z,13.80
2019-02-15T08:52:57.690Z,14.80
2019-02-15T08:55:27.035Z,14.63
2019-02-15T08:57:56.228Z,11.93
2019-02-15T09:00:25.499Z,11.20
2019-02-15T09:02:55.067Z,12.60
2019-02-15T09:05:24.557Z,15.20
2019-02-15T09:07:54.405Z,13.40
2019-02-15T09:10:23.965Z,16.83
2019-02-15T09:12:53.558Z,12.80
2019-02-15T09:15:23.466Z,16.10
2019-02-15T09:17:52.786Z,12.40
2019-02-15T09:20:22.197Z,14.37
2019-02-15T09:22:51.807Z,14.80
2019-02-15T09:25:24.894Z,20.10
2019-02-15T09:28:14.390Z,14.97
2019-02-15T09:30:51.679Z,15.03
2019-02-15T09:33:20.999Z,17.10
2019-02-15T09:35:52.166Z,14.13
2019-02-15T09:38:22.518Z,20.43
2019-02-15T09:40:52.764Z,12.90
2019-02-15T09:43:23.052Z,15.63
2019-02-15T09:45:53.803Z,17.80
2019-02-15T09:48:24.073Z,19.97
2019-02-15T09:50:53.933Z,12.50
2019-02-15T09:53:24.379Z,22.83
2019-02-15T09:55:54.568Z,14.97
2019-02-15T09:58:24.826Z,12.77
2019-02-15T10:00:55.066Z,15.03
2019-02-15T10:03:25.258Z,13.63
2019-02-15T10:05:55.548Z,14.37
2019-02-15T10:08:25.722Z,11.70
2019-02-15T10:10:55.973Z,20.13
2019-02-15T10:13:26.562Z,16.40
2019-02-15T10:15:56.571Z,11.93
2019-02-15T10:18:27.048Z,11.50
2019-02-15T10:20:57.271Z,13.83
2019-02-15T10:23:27.686Z,16.40
2019-02-15T10:25:57.832Z,15.00
2019-02-15T10:28:29.505Z,16.97
2019-02-15T10:30:59.576Z,15.13
2019-02-15T10:33:29.686Z,14.73
2019-02-15T10:35:59.842Z,10.47
2019-02-15T10:38:31.970Z,10.90
2019-02-15T10:41:02.134Z,9.63
2019-02-15T10:43:34.135Z,12.73
2019-02-15T10:46:04.281Z,13.37
2019-02-15T10:48:34.705Z,12.17
2019-02-15T10:51:04.674Z,12.50
2019-02-15T10:53:37.884Z,10.67
2019-02-15T10:56:08.205Z,8.53
2019-02-15T10:58:38.448Z,13.80
2019-02-15T11:01:08.497Z,12.13
2019-02-15T11:03:38.579Z,9.87
2019-02-15T11:06:08.672Z,10.57
2019-02-15T11:08:40.504Z,17.07
2019-02-15T11:11:10.616Z,9.77
2019-02-15T11:13:40.676Z,12.30
2019-02-15T11:16:10.724Z,15.23
2019-02-15T11:18:40.998Z,15.10
2019-02-15T11:21:10.969Z,12.83
2019-02-15T11:23:41.119Z,9.83
2019-02-15T11:26:11.058Z,10.00
2019-02-15T11:28:41.364Z,16.40
2019-02-15T11:31:11.569Z,13.07
2019-02-15T11:33:42.122Z,17.50
2019-02-15T11:36:12.668Z,9.47
2019-02-15T11:38:42.671Z,11.80
2019-02-15T11:41:12.682Z,13.73
2019-02-15T11:43:42.966Z,14.67
2019-02-15T11:46:15.357Z,10.43
2019-02-15T11:48:45.261Z,11.50
2019-02-15T11:51:15.191Z,13.57
2019-02-15T11:53:48.605Z,12.17
2019-02-15T11:56:18.778Z,14.27
2019-02-15T11:58:49.145Z,10.93
2019-02-15T12:01:19.288Z,10.97
2019-02-15T12:03:49.499Z,12.97
2019-02-15T12:06:19.596Z,8.07
2019-02-15T12:08:49.934Z,11.20
2019-02-15T12:11:20.398Z,9.40
2019-02-15T12:13:50.645Z,10.10
2019-02-15T12:16:20.872Z,12.57
2019-02-15T12:18:51.379Z,10.73
2019-02-15T12:21:21.888Z,12.30
2019-02-15T12:23:52.085Z,9.13
2019-02-15T12:26:23.004Z,9.70
2019-02-15T12:28:53.265Z,9.33
2019-02-15T12:31:25.073Z,8.73
2019-02-15T12:33:55.105Z,10.70
2019-02-15T12:36:25.262Z,12.23
2019-02-15T12:38:55.191Z,10.20
2019-02-15T12:41:26.580Z,8.27
2019-02-15T12:43:56.439Z,7.03
2019-02-15T12:46:34.534Z,7.63
2019-02-15T12:49:04.881Z,6.53
2019-02-15T12:51:34.842Z,7.83
2019-02-15T12:54:13.240Z,8.63
2019-02-15T12:56:44.982Z,10.10
2019-02-15T12:59:15.150Z,9.63
2019-02-15T13:01:45.471Z,8.20
2019-02-15T13:04:15.747Z,8.23
2019-02-15T13:06:46.954Z,8.30
2019-02-15T13:09:17.139Z,9.37
2019-02-15T13:11:47.696Z,7.37
2019-02-15T13:14:17.845Z,6.87
2019-02-15T13:16:48.048Z,9.33
2019-02-15T13:19:18.567Z,9.00
2019-02-15T13:21:48.672Z,11.37
2019-02-15T13:24:18.833Z,6.30
2019-02-15T13:26:49.101Z,6.90
2019-02-15T13:29:20.851Z,7.30
2019-02-15T13:31:51.137Z,8.10
2019-02-15T13:34:21.667Z,9.90
2019-02-15T13:36:51.807Z,5.37
2019-02-15T13:39:21.966Z,5.87
2019-02-15T13:41:52.083Z,5.03
2019-02-15T13:44:23.574Z,6.23
2019-02-15T13:46:54.448Z,5.40
2019-02-15T13:49:24.591Z,4.40
2019-02-15T13:51:59.648Z,4.63
2019-02-15T13:54:33.131Z,7.23
2019-02-15T13:57:03.349Z,4.63
2019-02-15T13:59:33.731Z,4.07
2019-02-15T14:02:04.027Z,4.60
2019-02-15T14:04:34.151Z,5.03
2019-02-15T14:07:16.103Z,4.80
2019-02-15T14:09:46.409Z,22.87
2019-02-15T14:12:16.647Z,11.90
2019-02-15T14:14:46.673Z,5.20
2019-02-15T14:17:16.828Z,8.70
2019-02-15T14:19:48.975Z,4.83
2019-02-15T14:22:19.042Z,3.27
2019-02-15T14:24:49.462Z,7.30
2019-02-15T14:27:19.494Z,8.03
2019-02-15T14:29:50.038Z,3.70
2019-02-15T14:32:20.240Z,8.20
2019-02-15T14:34:50.839Z,11.90
2019-02-15T14:37:21.274Z,9.67
2019-02-15T14:39:51.464Z,7.03
2019-02-15T14:42:21.482Z,5.57
2019-02-15T14:44:51.487Z,25.23
2019-02-15T14:47:24.792Z,7.70
2019-02-15T14:49:55.120Z,7.47
2019-02-15T14:52:25.208Z,2.57
2019-02-15T14:54:55.228Z,7.37
2019-02-15T14:57:25.496Z,6.17
2019-02-15T14:59:56.096Z,6.10
2019-02-15T15:02:26.440Z,4.10
2019-02-15T15:04:56.523Z,2.60
2019-02-15T15:07:26.643Z,7.43
2019-02-15T15:09:58.228Z,4.00
2019-02-15T15:12:28.650Z,2.40
2019-02-15T15:14:58.894Z,4.53
2019-02-15T15:17:30.472Z,2.23
2019-02-15T15:20:00.946Z,2.80
2019-02-15T15:22:31.089Z,3.07
2019-02-15T15:25:01.275Z,2.17
2019-02-15T15:27:48.407Z,4.10
2019-02-15T15:30:18.751Z,6.47
2019-02-15T15:32:54.269Z,2.83
2019-02-15T15:35:31.442Z,5.60
2019-02-15T15:38:02.637Z,4.80
2019-02-15T15:40:34.074Z,8.30
2019-02-15T15:43:06.792Z,3.87
2019-02-15T15:45:38.281Z,4.40
2019-02-15T15:48:08.717Z,3.70
2019-02-15T15:50:40.175Z,4.50
2019-02-15T15:53:11.118Z,8.67
2019-02-15T15:55:41.911Z,9.90
2019-02-15T15:58:12.819Z,5.43
2019-02-15T16:00:45.699Z,4.33
2019-02-15T16:03:16.387Z,3.37
2019-02-15T16:05:48.489Z,6.70
2019-02-15T16:08:18.911Z,3.50
2019-02-15T16:10:50.415Z,4.40
2019-02-15T16:13:21.073Z,4.50
2019-02-15T16:15:56.552Z,2.50
2019-02-15T16:18:34.814Z,2.20
2019-02-15T16:21:05.415Z,3.23
2019-02-15T16:23:36.117Z,2.47
2019-02-15T16:26:11.199Z,3.50
2019-02-15T16:28:46.396Z,2.30
2019-02-15T16:31:17.377Z,3.23
2019-02-15T16:33:50.397Z,2.17
2019-02-15T16:36:24.032Z,4.20
2019-02-15T16:38:57.534Z,1.97
2019-02-15T16:41:28.656Z,1.90
2019-02-15T16:44:01.602Z,2.70
2019-02-15T16:46:35.903Z,2.77
2019-02-15T16:49:22.729Z,4.37
2019-02-15T16:52:04.860Z,2.27
2019-02-15T16:54:34.947Z,2.33
2019-02-15T16:57:07.974Z,2.13
2019-02-15T16:59:39.778Z,4.50
2019-02-15T17:02:14.241Z,5.43
2019-02-15T17:04:57.268Z,1.90
2019-02-15T17:07:29.403Z,4.60
2019-02-15T17:10:05.352Z,3.40
2019-02-15T17:13:03.238Z,3.47
2019-02-15T17:15:52.440Z,2.10
2019-02-15T17:18:51.461Z,3.13
2019-02-15T17:21:28.934Z,3.80
2019-02-15T17:24:01.791Z,1.80
2019-02-15T17:26:39.044Z,3.83
2019-02-15T17:29:11.620Z,4.97
2019-02-15T17:31:41.604Z,4.37
2019-02-15T17:34:11.636Z,2.90
2019-02-15T17:36:41.960Z,3.27
2019-02-15T17:39:12.438Z,3.67
2019-02-15T17:41:42.646Z,3.43
2019-02-15T17:44:13.956Z,4.70
2019-02-15T17:46:43.933Z,2.93
2019-02-15T17:49:14.431Z,3.23
2019-02-15T17:51:46.342Z,4.13
2019-02-15T17:54:17.250Z,2.80
2019-02-15T17:56:47.587Z,5.97
2019-02-15T17:59:22.272Z,4.53
2019-02-15T18:01:53.137Z,3.13
2019-02-15T18:04:37.310Z,3.70
2019-02-15T18:07:10.933Z,6.10
2019-02-15T18:09:43.387Z,3.60
2019-02-15T18:12:17.778Z,2.40
2019-02-15T18:14:53.950Z,3.00
2019-02-15T18:24:42.149Z,4.53
2019-02-15T18:31:53.894Z,4.27
2019-02-15T19:03:17.203Z,2.80
2019-02-15T19:05:33.809Z,2.53
2019-02-15T19:08:19.647Z,4.23
2019-02-15T19:12:19.516Z,3.90
2019-02-15T19:17:44.508Z,3.37
2019-02-15T19:20:20.899Z,3.80
2019-02-15T19:23:00.964Z,5.27
2019-02-15T19:25:51.655Z,3.67
2019-02-15T19:28:28.934Z,4.63
2019-02-15T19:31:10.481Z,3.40
2019-02-15T19:34:50.978Z,5.77
2019-02-15T19:39:50.352Z,6.63
2019-02-15T19:42:42.466Z,3.53
2019-02-15T19:45:16.252Z,5.13
2019-02-15T19:47:52.242Z,3.40
2019-02-15T19:50:27.805Z,4.30
2019-02-15T19:53:01.298Z,6.83
2019-02-15T19:57:24.745Z,3.30
2019-02-15T19:58:13.075Z,3.70
2019-02-15T20:00:45.385Z,4.50
2019-02-15T20:06:36.093Z,5.17
2019-02-15T20:09:11.878Z,4.90
2019-02-15T20:11:51.495Z,4.10
2019-02-15T20:14:45.456Z,4.40
2019-02-15T20:17:14.734Z,4.27
2019-02-15T20:19:55.163Z,4.10
2019-02-15T20:22:50.932Z,4.27
2019-02-15T20:25:56.669Z,4.13
2019-02-15T20:28:26.972Z,5.17
2019-02-15T20:32:58.799Z,4.07
2019-02-15T20:34:02.479Z,4.50
2019-02-15T20:37:09.602Z,4.90
2019-02-15T20:39:57.602Z,3.50
2019-02-15T20:45:59.148Z,5.27
2019-02-15T20:48:38.422Z,3.67
2019-02-15T20:54:27.194Z,4.57
2019-02-15T20:57:12.167Z,4.37
2019-02-15T21:02:40.563Z,5.10
2019-02-15T21:05:26.790Z,4.20
2019-02-15T21:11:15.294Z,4.43
2019-02-15T21:13:59.094Z,4.03
2019-02-15T21:16:43.012Z,5.70
2019-02-15T21:19:07.244Z,4.60
2019-02-15T21:21:43.070Z,4.43
2019-02-15T21:24:34.585Z,6.60
2019-02-15T21:27:08.049Z,5.70
2019-02-15T21:29:47.625Z,4.40
2019-02-15T21:32:17.794Z,5.20
2019-02-15T21:34:50.232Z,4.17
2019-02-15T21:37:20.095Z,4.37
2019-02-15T21:39:53.211Z,4.20
2019-02-15T21:42:25.793Z,4.67
2019-02-15T21:44:56.577Z,3.90
2019-02-15T21:47:39.969Z,3.90
2019-02-15T21:50:17.197Z,3.93
2019-02-15T21:52:45.812Z,4.20
2019-02-15T21:55:18.398Z,4.47
2019-02-15T21:57:50.234Z,4.43
2019-02-15T22:00:22.727Z,4.20
2019-02-15T22:02:54.534Z,4.43
2019-02-15T22:05:24.847Z,3.57
2019-02-15T22:08:00.129Z,4.27
2019-02-15T22:10:30.483Z,4.30
2019-02-15T22:13:23.951Z,4.67
2019-02-15T22:15:54.338Z,4.30
2019-02-15T22:18:24.749Z,4.40
2019-02-15T22:20:56.322Z,4.03
2019-02-15T22:23:34.670Z,4.37
2019-02-15T22:26:06.997Z,3.73
2019-02-15T22:28:37.189Z,3.87
2019-02-15T22:31:07.835Z,4.30
2019-02-15T22:33:37.892Z,5.47
2019-02-15T22:36:07.999Z,4.07
2019-02-15T22:38:38.113Z,4.40
2019-02-15T22:41:13.935Z,4.33
2019-02-15T22:43:44.700Z,4.33
2019-02-15T22:46:14.948Z,3.80
2019-02-15T22:48:45.038Z,3.93
2019-02-15T22:51:15.028Z,4.50
2019-02-15T22:53:44.984Z,4.40
2019-02-15T22:56:14.804Z,4.93
2019-02-15T22:58:44.622Z,5.10
2019-02-15T23:01:17.452Z,4.57
2019-02-15T23:03:47.789Z,4.43
2019-02-15T23:06:17.767Z,5.13
2019-02-15T23:08:47.708Z,4.17
2019-02-15T23:11:17.886Z,5.63
2019-02-15T23:13:48.111Z,4.20
2019-02-15T23:16:18.241Z,4.27
2019-02-15T23:18:48.834Z,4.60
2019-02-15T23:21:18.891Z,4.77
2019-02-15T23:23:49.532Z,4.10
2019-02-15T23:26:19.647Z,5.53
2019-02-15T23:28:49.696Z,4.73
2019-02-15T23:31:19.868Z,3.90
2019-02-15T23:33:49.984Z,4.67
2019-02-15T23:36:20.222Z,4.43
2019-02-15T23:38:50.103Z,3.80
2019-02-15T23:41:19.867Z,4.80
2019-02-15T23:43:50.045Z,4.10
2019-02-15T23:46:20.227Z,4.70
2019-02-15T23:48:50.255Z,4.27
2019-02-15T23:51:20.623Z,4.47
2019-02-15T23:53:50.484Z,4.00
2019-02-15T23:56:20.580Z,5.13
2019-02-15T23:58:51.044Z,3.90
